Airfield :







YOU CAN JOIN US ON...

 
LOGIN :

Register | Disclaimer

   EN    FR    IT 

 









Legend :    VFR   Marginal VFR   IFR   Intensive IFR   Very Intensive IFR
Visi :
Ceiling :
>= 8 km
>= 3000ft
5 to 8 km
1000 to 3000 ft
1500m to 5 km
500 to 1000 ft
800 to 1500m
200 to 500 ft
< 800m
< 200 ft
Symbols :   Thunderstorms  Fog  Heavy snow  Heavy precipitations  Wind > 20 kt







- Airport Elevation : 121 ft
- IATA code : YBX


CYBX - Lourdes De Blanc Sablon

CURRENT METAR :
  • 221800Z 01017G23KT 15SM FEW030 BKN100 07/00 A2986 RMK SC1AC6 SLP115

EXPIRED METARs :
  • 221700Z 36019G27KT 15SM FEW025 BKN100 07/00 A2986 RMK SC1AC6 SLP116
  • 221600Z 36022G36KT 15SM FEW030 BKN120 08/01 A2986 RMK SC1AC5 SLP116

TAF TAF CYBX
Valid from the 22 at 14:00 until the 23 at 02:00 UTC


221347Z 2214/2302 02020G30KT P6SM SCT020 OVC050
TEMPO 2214/2218 OVC020
BECMG 2214/2216 01020G30KT
FM221900 35020G30KT P6SM -RA OVC030
TEMPO 2219/2222 4SM -RA BR OVC020
FM222200 36015G25KT P6SM BKN025 OVC140
TEMPO 2222/2302 4SM -RASN BR OVC020 RMK NXT FCST BY 222000Z
CZUL FIR / North America



MET'MAP, your aeronautical weather chart ! - Copyright ORBIFLY December 2007 - Disclaimer

ORBIFLY MET'MAP TEAM :

Programming & Development : Alexandra Zaïnal
Concept & Development : Baudouin d'Aumeries
Co-Development & Prog : Marc-Olivier Méhu
Technical & hardware support : Manuel Goepfert

Contact : metmap@orbifly.com




SOURCES & CREDITS :

   NOAA